Time;durP1;ratioP1;P1;durP2;ratioP2;P2;SDS_P1;SDS_P2;PMS_P1;PMS_P2;Temp;Humidity;BMP_temperature;BMP_pressure;BME280_temperature;BME280_humidity;BME280_pressure;Samples;Min_cycle;Max_cycle;Signal;HPM_P1;HPM_P2
2022/12/31 00:01:37;;;;;;;1.30;0.77;;;14.30;1.00;;;;;;4832226;29;20456;-89
2022/12/31 00:04:03;;;;;;;1.00;0.70;;;14.30;1.00;;;;;;4843217;29;20820;-90
2022/12/31 00:06:55;;;;;;;1.07;0.60;;;14.30;1.00;;;;;;4841882;29;20937;-88
2022/12/31 00:09:23;;;;;;;1.40;0.70;;;14.30;1.00;;;;;;4837746;29;20219;-90
2022/12/31 00:12:10;;;;;;;2.00;0.70;;;14.30;1.00;;;;;;4840514;29;20461;-89
2022/12/31 00:14:38;;;;;;;2.13;0.60;;;14.40;1.00;;;;;;4839597;29;20576;-89
2022/12/31 00:17:06;;;;;;;0.90;0.50;;;14.40;1.00;;;;;;4844800;29;20450;-89
2022/12/31 00:19:32;;;;;;;1.33;0.80;;;14.40;1.00;;;;;;4855922;29;20913;-89
2022/12/31 00:21:58;;;;;;;1.00;0.50;;;14.50;1.00;;;;;;4850245;29;20481;-89
2022/12/31 00:24:23;;;;;;;1.03;0.50;;;14.50;1.00;;;;;;4844995;29;20484;-90
2022/12/31 00:26:49;;;;;;;1.00;0.60;;;14.60;1.00;;;;;;4851018;29;20199;-89
2022/12/31 00:29:14;;;;;;;1.00;0.50;;;14.50;1.00;;;;;;4850951;29;20226;-89
2022/12/31 00:31:42;;;;;;;0.90;0.50;;;14.60;1.00;;;;;;4853669;29;20621;-90
2022/12/31 00:34:08;;;;;;;0.90;0.40;;;14.60;1.00;;;;;;4847341;29;20275;-90
2022/12/31 00:36:36;;;;;;;1.23;0.60;;;14.70;1.00;;;;;;4843085;29;20529;-90
2022/12/31 00:39:05;;;;;;;0.93;0.50;;;14.70;1.00;;;;;;4846623;29;20470;-90
2022/12/31 00:41:31;;;;;;;0.90;0.50;;;14.80;1.00;;;;;;4842282;29;21058;-90
2022/12/31 00:43:57;;;;;;;0.90;0.50;;;14.80;1.00;;;;;;4845873;29;20475;-90
2022/12/31 00:46:25;;;;;;;0.80;0.40;;;14.80;1.00;;;;;;4841969;29;20444;-89
2022/12/31 00:48:57;;;;;;;1.13;0.60;;;14.90;1.00;;;;;;4841219;29;20550;-89
2022/12/31 00:51:26;;;;;;;1.53;0.50;;;14.90;1.00;;;;;;4848325;29;20464;-90
2022/12/31 00:53:52;;;;;;;1.00;0.50;;;14.90;1.00;;;;;;4836014;29;20536;-91
2022/12/31 00:56:25;;;;;;;1.10;0.50;;;15.00;1.00;;;;;;4843302;29;20473;-90
2022/12/31 00:58:51;;;;;;;0.87;0.47;;;15.00;1.00;;;;;;4844392;29;20471;-90
2022/12/31 01:01:27;;;;;;;0.90;0.50;;;15.10;1.00;;;;;;4845356;29;20444;-90
2022/12/31 01:04:18;;;;;;;1.23;0.50;;;15.20;1.00;;;;;;4853178;29;20536;-90
2022/12/31 01:06:44;;;;;;;0.90;0.50;;;15.20;1.00;;;;;;4845005;29;20859;-90
2022/12/31 01:09:15;;;;;;;0.93;0.50;;;15.20;1.00;;;;;;4840375;29;20508;-90
2022/12/31 01:11:41;;;;;;;0.90;0.40;;;15.30;1.00;;;;;;4842161;29;20192;-89
2022/12/31 01:14:13;;;;;;;0.90;0.50;;;15.30;1.00;;;;;;4849879;29;20448;-90
2022/12/31 01:16:47;;;;;;;0.90;0.50;;;15.40;1.00;;;;;;4845771;29;20446;-91
2022/12/31 01:19:24;;;;;;;0.90;0.50;;;15.40;1.00;;;;;;4847428;29;20480;-90
2022/12/31 01:21:50;;;;;;;0.90;0.40;;;15.50;1.00;;;;;;4837450;29;21005;-89
2022/12/31 01:24:17;;;;;;;4.20;0.50;;;15.50;1.00;;;;;;4852689;29;20437;-90
2022/12/31 01:26:44;;;;;;;0.90;0.40;;;15.60;1.00;;;;;;4845120;29;20513;-90
2022/12/31 01:29:10;;;;;;;0.80;0.40;;;15.60;1.00;;;;;;4841468;29;20512;-90
2022/12/31 01:31:37;;;;;;;1.20;0.53;;;15.60;1.00;;;;;;4846473;29;20437;-90
2022/12/31 01:34:03;;;;;;;0.90;0.40;;;15.70;1.00;;;;;;4849904;29;20458;-90
2022/12/31 01:36:31;;;;;;;0.90;0.47;;;15.70;1.00;;;;;;4850270;29;20452;-91
2022/12/31 01:38:58;;;;;;;0.90;0.40;;;15.70;99.90;;;;;;4854242;29;20499;-90
2022/12/31 01:41:27;;;;;;;0.90;0.40;;;15.70;99.90;;;;;;4863168;29;20454;-88
2022/12/31 01:44:14;;;;;;;1.40;0.50;;;15.80;99.90;;;;;;4859710;29;20486;-90
2022/12/31 01:46:41;;;;;;;1.57;0.40;;;15.80;99.90;;;;;;4838526;29;20452;-90
2022/12/31 01:49:13;;;;;;;2.60;0.50;;;15.80;99.90;;;;;;4840105;29;20486;-90
2022/12/31 01:51:43;;;;;;;1.67;0.50;;;15.70;99.90;;;;;;4845640;29;20511;-89
2022/12/31 01:54:14;;;;;;;0.90;0.40;;;15.80;99.90;;;;;;4841616;29;20457;-90
2022/12/31 01:56:42;;;;;;;1.23;0.50;;;15.80;99.90;;;;;;4852853;29;20453;-90
2022/12/31 01:59:09;;;;;;;1.73;0.50;;;15.80;99.90;;;;;;4854720;29;20528;-89
2022/12/31 02:01:38;;;;;;;1.57;0.73;;;15.80;99.90;;;;;;4837876;29;20465;-90
2022/12/31 02:04:12;;;;;;;1.10;0.40;;;15.70;99.90;;;;;;4849346;29;20449;-89
2022/12/31 02:06:42;;;;;;;0.90;0.50;;;15.70;99.90;;;;;;4845227;29;20450;-89
2022/12/31 02:09:10;;;;;;;1.40;0.50;;;15.70;99.90;;;;;;4849088;29;20568;-89
2022/12/31 02:11:36;;;;;;;0.97;0.40;;;15.70;99.90;;;;;;4840518;29;20532;-90
2022/12/31 02:14:13;;;;;;;1.53;0.50;;;15.70;99.90;;;;;;4844388;29;20441;-90
2022/12/31 02:17:10;;;;;;;0.90;0.50;;;15.80;99.90;;;;;;4842449;29;20986;-89
2022/12/31 02:20:10;;;;;;;0.87;0.50;;;15.80;99.90;;;;;;4848260;29;20469;-89
2022/12/31 02:23:03;;;;;;;1.37;0.57;;;15.80;99.90;;;;;;4835413;29;20802;-90
2022/12/31 02:26:07;;;;;;;1.40;0.50;;;15.80;99.90;;;;;;4836983;29;20462;-89
2022/12/31 02:28:51;;;;;;;1.00;0.50;;;15.80;99.90;;;;;;4848756;29;20495;-90
2022/12/31 02:31:25;;;;;;;0.90;0.50;;;15.80;99.90;;;;;;4850461;29;20453;-89
2022/12/31 02:34:03;;;;;;;0.90;0.50;;;15.80;94.70;;;;;;4841709;29;20446;-90
2022/12/31 02:36:33;;;;;;;0.80;0.40;;;15.80;31.00;;;;;;4844382;29;20942;-90
2022/12/31 02:39:01;;;;;;;1.23;0.50;;;15.80;22.20;;;;;;4847551;29;20465;-89
2022/12/31 02:44:34;;;;;;;1.10;0.70;;;15.90;1.00;;;;;;4848653;29;20445;-89
2022/12/31 02:47:08;;;;;;;1.00;0.50;;;15.90;1.00;;;;;;4841436;29;20459;-90
2022/12/31 02:49:58;;;;;;;1.20;0.50;;;15.90;1.00;;;;;;4847282;29;20480;-89
2022/12/31 02:52:51;;;;;;;4.10;0.60;;;15.90;2.40;;;;;;4842513;29;20813;-89
2022/12/31 02:55:32;;;;;;;1.10;0.47;;;15.90;54.60;;;;;;4838612;29;20444;-90
2022/12/31 03:04:31;;;;;;;1.27;0.60;;;15.90;70.30;;;;;;4857975;29;21175;-89
2022/12/31 03:07:07;;;;;;;2.63;0.50;;;15.90;70.90;;;;;;4846839;29;20446;-88
2022/12/31 03:09:34;;;;;;;2.70;0.50;;;16.00;72.90;;;;;;4845328;29;20510;-89
2022/12/31 03:14:45;;;;;;;0.80;0.40;;;16.00;76.40;;;;;;4843396;29;20491;-90
2022/12/31 03:17:11;;;;;;;1.73;0.50;;;16.00;98.60;;;;;;4847404;29;20969;-89
2022/12/31 03:22:27;;;;;;;1.10;0.50;;;16.00;99.90;;;;;;4844374;29;20457;-89
2022/12/31 03:27:43;;;;;;;1.60;0.60;;;15.80;99.90;;;;;;4843807;29;20544;-90
2022/12/31 03:30:12;;;;;;;1.60;0.60;;;15.70;1.00;;;;;;4841501;29;20473;-89
2022/12/31 03:32:39;;;;;;;2.23;0.50;;;15.60;1.00;;;;;;4844938;29;20505;-89
2022/12/31 03:35:06;;;;;;;2.00;0.60;;;15.60;1.00;;;;;;4845038;29;20443;-90
2022/12/31 03:37:31;;;;;;;0.90;0.50;;;15.50;1.00;;;;;;4854842;29;20497;-89
2022/12/31 03:39:57;;;;;;;1.03;0.50;;;15.50;1.00;;;;;;4823894;29;20967;-90
2022/12/31 03:42:22;;;;;;;2.13;0.50;;;15.50;1.00;;;;;;4843590;29;20180;-90
2022/12/31 03:44:48;;;;;;;1.30;0.50;;;15.50;1.00;;;;;;4843101;29;20189;-90
2022/12/31 03:47:13;;;;;;;1.10;0.50;;;15.60;1.00;;;;;;4847776;29;20189;-90
2022/12/31 03:49:39;;;;;;;1.40;0.60;;;15.50;1.00;;;;;;4840666;29;20244;-90
2022/12/31 03:52:05;;;;;;;4.07;0.50;;;15.60;1.00;;;;;;4838490;29;20197;-90
2022/12/31 03:54:31;;;;;;;1.37;0.60;;;15.60;1.00;;;;;;4842717;29;20615;-91
2022/12/31 03:56:56;;;;;;;1.80;0.50;;;15.60;1.00;;;;;;4844163;29;22002;-90
2022/12/31 03:59:22;;;;;;;1.30;0.60;;;15.60;1.00;;;;;;4849057;29;20479;-91
2022/12/31 04:01:47;;;;;;;1.00;0.50;;;15.60;1.00;;;;;;4850668;29;20679;-88
2022/12/31 04:04:13;;;;;;;1.00;0.50;;;15.60;1.00;;;;;;4839949;29;20200;-90
2022/12/31 04:06:38;;;;;;;0.97;0.50;;;15.60;1.00;;;;;;4845495;29;20200;-90
2022/12/31 04:09:04;;;;;;;1.20;0.50;;;15.60;99.90;;;;;;4840019;29;20590;-90
2022/12/31 04:11:29;;;;;;;1.40;0.57;;;15.60;99.90;;;;;;4849241;29;20195;-90
2022/12/31 04:13:55;;;;;;;0.90;0.50;;;15.60;99.90;;;;;;4841116;29;20843;-90
2022/12/31 04:16:21;;;;;;;1.00;0.60;;;15.70;99.90;;;;;;4844866;29;20549;-90
2022/12/31 04:18:46;;;;;;;0.90;0.50;;;15.70;99.90;;;;;;4839683;29;20213;-90
2022/12/31 04:21:11;;;;;;;1.93;0.70;;;15.80;99.90;;;;;;4845540;29;20197;-90
2022/12/31 04:23:37;;;;;;;3.23;0.77;;;15.80;99.90;;;;;;4843075;29;20197;-90
2022/12/31 04:26:03;;;;;;;2.43;0.70;;;15.80;99.90;;;;;;4842598;29;20208;-90
2022/12/31 04:28:28;;;;;;;1.70;0.73;;;15.90;99.90;;;;;;4844285;29;20227;-89
2022/12/31 04:30:54;;;;;;;2.07;0.60;;;15.90;99.90;;;;;;4845716;29;20280;-90
2022/12/31 04:33:19;;;;;;;1.43;0.60;;;15.90;99.90;;;;;;4837315;29;20664;-90
2022/12/31 04:35:45;;;;;;;1.10;0.60;;;15.90;99.90;;;;;;4843365;29;20690;-89
2022/12/31 04:38:10;;;;;;;2.30;0.70;;;15.90;99.90;;;;;;4840619;29;20276;-90
2022/12/31 04:41:15;;;;;;;6.50;0.70;;;16.00;99.90;;;;;;4836896;29;20193;-91
2022/12/31 04:43:21;;;;;;;1.53;0.50;;;16.00;31.10;;;;;;4842629;29;20616;-90
2022/12/31 04:45:47;;;;;;;1.40;0.50;;;16.10;1.00;;;;;;4851211;29;20485;-90
2022/12/31 04:48:13;;;;;;;2.17;0.80;;;16.10;1.00;;;;;;4844787;29;20942;-90
2022/12/31 04:50:38;;;;;;;1.30;0.70;;;16.10;1.00;;;;;;4838418;29;20203;-89
2022/12/31 04:53:04;;;;;;;1.00;0.60;;;16.10;1.00;;;;;;4845266;29;20583;-89
2022/12/31 04:55:29;;;;;;;2.50;0.70;;;16.10;1.00;;;;;;4846957;29;20223;-89
2022/12/31 04:57:55;;;;;;;3.47;0.77;;;16.10;1.00;;;;;;4843327;29;20200;-89
2022/12/31 05:00:20;;;;;;;2.03;0.70;;;16.10;1.00;;;;;;4845056;29;20250;-90
2022/12/31 05:02:46;;;;;;;1.20;0.60;;;16.20;1.00;;;;;;4844596;29;20256;-89
2022/12/31 05:05:12;;;;;;;1.70;0.63;;;16.10;1.00;;;;;;4855407;29;20189;-89
2022/12/31 05:07:37;;;;;;;1.07;0.60;;;16.10;99.90;;;;;;4855387;29;20285;-90
2022/12/31 05:10:06;;;;;;;2.13;0.70;;;16.10;99.90;;;;;;4844079;29;20267;-89
2022/12/31 05:12:31;;;;;;;2.73;0.90;;;16.10;99.90;;;;;;4867061;29;20226;-90
2022/12/31 05:14:57;;;;;;;2.17;0.90;;;16.10;99.90;;;;;;4853042;29;20470;-89
2022/12/31 05:17:22;;;;;;;1.60;0.70;;;16.20;99.90;;;;;;4855733;29;20223;-90
2022/12/31 05:19:48;;;;;;;2.13;0.70;;;16.10;99.90;;;;;;4846107;29;20238;-90
2022/12/31 05:22:28;;;;;;;1.90;0.83;;;16.10;99.90;;;;;;4847164;29;20621;-89
2022/12/31 05:24:55;;;;;;;1.33;0.60;;;16.10;99.90;;;;;;4843602;29;20193;-89
2022/12/31 05:27:20;;;;;;;2.37;0.60;;;16.20;99.90;;;;;;4838698;29;20455;-89
2022/12/31 05:29:46;;;;;;;1.10;0.70;;;16.20;99.90;;;;;;4840804;29;20917;-90
2022/12/31 05:32:12;;;;;;;1.50;0.70;;;16.20;99.90;;;;;;4851261;29;20193;-90
2022/12/31 05:34:38;;;;;;;1.10;0.60;;;16.20;99.90;;;;;;4847756;29;20449;-90
2022/12/31 05:37:03;;;;;;;2.27;0.70;;;16.20;1.00;;;;;;4842338;29;20332;-90
2022/12/31 05:39:29;;;;;;;1.50;0.60;;;16.20;1.00;;;;;;4834212;29;20237;-90
2022/12/31 05:41:54;;;;;;;1.20;0.60;;;16.20;1.00;;;;;;4844398;29;20666;-90
2022/12/31 05:44:22;;;;;;;2.07;0.70;;;16.20;1.00;;;;;;4837245;29;20201;-89
2022/12/31 05:46:50;;;;;;;3.33;1.33;;;16.20;1.00;;;;;;4849478;29;20738;-90
2022/12/31 05:49:16;;;;;;;2.43;0.80;;;16.30;1.00;;;;;;4835716;29;20602;-89
2022/12/31 05:51:41;;;;;;;1.37;0.60;;;16.20;1.00;;;;;;4840249;29;20526;-89
2022/12/31 05:54:07;;;;;;;2.90;0.80;;;16.30;1.00;;;;;;4837813;29;20190;-90
2022/12/31 05:56:32;;;;;;;2.23;0.60;;;16.20;1.00;;;;;;4841586;29;20189;-89
2022/12/31 05:58:58;;;;;;;2.13;0.67;;;16.30;1.00;;;;;;4841027;29;20225;-89
2022/12/31 06:01:23;;;;;;;3.53;0.97;;;16.30;1.00;;;;;;4831595;29;20193;-89
2022/12/31 06:03:49;;;;;;;2.50;0.80;;;16.30;1.00;;;;;;4839486;29;20218;-89
2022/12/31 06:06:15;;;;;;;2.17;0.77;;;16.40;99.90;;;;;;4831087;29;20193;-89
2022/12/31 06:08:40;;;;;;;1.47;0.87;;;16.40;99.90;;;;;;4841661;29;20593;-90
2022/12/31 06:11:06;;;;;;;3.77;1.47;;;16.40;99.90;;;;;;4841827;29;20198;-90
2022/12/31 06:13:31;;;;;;;2.70;0.90;;;16.50;32.20;;;;;;4842226;29;20252;-89
2022/12/31 06:15:57;;;;;;;2.53;0.90;;;16.50;1.00;;;;;;4840655;29;20210;-89
2022/12/31 06:18:22;;;;;;;1.93;0.80;;;16.50;1.00;;;;;;4842367;29;20218;-90
2022/12/31 06:20:48;;;;;;;1.63;0.77;;;16.50;1.00;;;;;;4828800;29;20199;-90
2022/12/31 06:23:17;;;;;;;4.00;0.90;;;16.50;1.00;;;;;;4833842;29;20301;-89
2022/12/31 06:25:42;;;;;;;7.10;1.97;;;16.50;1.00;;;;;;4840019;29;20723;-89
2022/12/31 06:28:10;;;;;;;2.20;0.80;;;16.60;1.00;;;;;;4840918;29;20466;-90
2022/12/31 06:30:36;;;;;;;3.50;2.17;;;16.60;99.90;;;;;;4841136;29;20197;-89
2022/12/31 06:33:02;;;;;;;2.50;1.10;;;16.60;99.90;;;;;;4840900;29;20455;-89
2022/12/31 06:35:27;;;;;;;2.37;0.80;;;16.60;99.90;;;;;;4841488;29;20660;-90
2022/12/31 06:37:53;;;;;;;1.87;0.90;;;16.60;99.90;;;;;;4842716;29;20311;-90
2022/12/31 06:40:18;;;;;;;2.13;0.70;;;16.60;99.90;;;;;;4835672;29;20218;-90
2022/12/31 06:42:44;;;;;;;2.23;0.80;;;16.50;99.90;;;;;;4842253;29;20244;-90
2022/12/31 06:45:10;;;;;;;2.53;0.83;;;16.50;99.90;;;;;;4840074;29;20218;-89
2022/12/31 06:47:35;;;;;;;4.00;0.80;;;16.50;99.90;;;;;;4834533;29;20198;-90
2022/12/31 06:50:01;;;;;;;1.77;0.93;;;16.50;99.90;;;;;;4841580;29;20201;-90
2022/12/31 06:52:26;;;;;;;1.53;0.70;;;16.50;99.90;;;;;;4833796;29;20225;-90
2022/12/31 06:54:52;;;;;;;2.17;0.80;;;16.50;1.00;;;;;;4836890;29;20192;-89
2022/12/31 06:57:18;;;;;;;7.70;1.10;;;16.40;1.00;;;;;;4840360;29;20190;-91
2022/12/31 06:59:44;;;;;;;2.00;0.80;;;16.50;1.00;;;;;;4834115;29;20225;-90
2022/12/31 07:02:23;;;;;;;3.93;1.63;;;16.50;1.00;;;;;;4839771;29;20449;-89
2022/12/31 07:04:58;;;;;;;3.47;1.10;;;16.50;1.00;;;;;;4833523;29;20292;-90
2022/12/31 07:07:47;;;;;;;5.70;1.10;;;16.50;24.70;;;;;;4838785;29;21078;-90
2022/12/31 07:10:45;;;;;;;2.57;1.00;;;16.50;1.00;;;;;;4831503;29;20471;-89
2022/12/31 07:13:29;;;;;;;1.83;0.90;;;16.50;1.00;;;;;;4837002;29;20461;-89
2022/12/31 07:16:16;;;;;;;2.03;0.87;;;16.40;1.00;;;;;;4831439;29;20831;-89
2022/12/31 07:19:23;;;;;;;4.80;0.93;;;16.50;1.00;;;;;;4840955;29;20517;-90
2022/12/31 07:21:51;;;;;;;2.53;1.37;;;16.50;1.00;;;;;;4827438;29;20617;-90
2022/12/31 07:24:17;;;;;;;2.10;0.80;;;16.50;99.90;;;;;;4840611;29;20635;-89
2022/12/31 07:26:55;;;;;;;6.17;1.20;;;16.50;99.90;;;;;;4831302;29;20453;-90
2022/12/31 07:29:33;;;;;;;3.00;1.20;;;16.60;62.60;;;;;;4832095;29;20494;-90
2022/12/31 07:32:31;;;;;;;2.60;1.27;;;16.60;1.00;;;;;;4830272;29;20448;-89
2022/12/31 07:35:42;;;;;;;2.20;0.80;;;16.70;1.00;;;;;;4840197;29;20962;-89
2022/12/31 07:38:39;;;;;;;4.80;1.00;;;16.70;99.90;;;;;;4836669;29;20440;-89
2022/12/31 07:41:13;;;;;;;2.47;1.00;;;16.70;1.00;;;;;;4838787;29;20458;-88
2022/12/31 07:44:05;;;;;;;2.30;0.90;;;16.80;99.90;;;;;;4840580;29;20824;-88
2022/12/31 07:46:54;;;;;;;3.20;1.03;;;16.80;99.90;;;;;;4834870;29;20451;-89
2022/12/31 07:49:20;;;;;;;2.30;1.10;;;16.80;99.90;;;;;;4846789;29;20851;-90
2022/12/31 07:51:49;;;;;;;3.90;1.30;;;16.80;15.70;;;;;;4828463;29;20458;-90
2022/12/31 07:54:14;;;;;;;3.67;1.00;;;16.80;1.00;;;;;;4847682;29;20519;-89
2022/12/31 07:56:41;;;;;;;3.40;1.07;;;16.80;1.00;;;;;;4838206;29;20498;-87
2022/12/31 07:59:17;;;;;;;2.30;0.77;;;16.80;1.00;;;;;;4833654;29;20691;-89
2022/12/31 08:02:25;;;;;;;2.60;1.00;;;16.80;1.00;;;;;;4832487;29;20456;-90
2022/12/31 08:05:17;;;;;;;3.57;1.20;;;16.80;1.00;;;;;;4836093;29;20854;-90
2022/12/31 08:10:48;;;;;;;3.73;0.80;;;16.90;99.90;;;;;;4839186;29;20438;-90
2022/12/31 08:13:17;;;;;;;3.90;0.93;;;16.90;1.00;;;;;;4839295;29;20459;-90
2022/12/31 08:15:49;;;;;;;3.30;1.07;;;17.00;99.90;;;;;;4839764;29;20221;-90
2022/12/31 08:18:15;;;;;;;2.67;1.20;;;17.00;99.90;;;;;;4845576;29;20483;-90
2022/12/31 08:20:59;;;;;;;2.13;1.00;;;17.10;99.90;;;;;;4845525;29;20438;-85
2022/12/31 08:24:05;;;;;;;4.43;0.90;;;17.20;1.00;;;;;;4839243;29;20271;-89
2022/12/31 08:27:06;;;;;;;2.20;0.93;;;17.20;1.00;;;;;;4836652;29;20448;-87
2022/12/31 08:30:01;;;;;;;8.80;1.40;;;17.30;99.90;;;;;;4854875;29;20517;-90
2022/12/31 08:32:45;;;;;;;1.80;0.90;;;17.40;48.70;;;;;;4838851;29;20532;-89
2022/12/31 08:35:41;;;;;;;2.60;1.07;;;17.50;1.00;;;;;;4837794;29;20449;-90
2022/12/31 08:38:35;;;;;;;6.70;1.47;;;17.60;1.00;;;;;;4837522;29;20449;-90
2022/12/31 08:41:36;;;;;;;5.40;1.17;;;17.70;99.90;;;;;;4836519;29;20478;-91
2022/12/31 08:44:48;;;;;;;6.30;1.73;;;17.80;99.90;;;;;;4851870;29;20454;-93
2022/12/31 08:47:54;;;;;;;3.53;1.50;;;17.90;99.90;;;;;;4893178;29;20433;-91
2022/12/31 08:50:26;;;;;;;1.60;1.10;;;18.00;1.00;;;;;;4873759;29;20469;-90
2022/12/31 08:53:36;;;;;;;;;;;;;;;;;;;;;
2022/12/31 08:56:36;;;;;;;2.37;1.13;;;18.10;1.00;;;;;;4835295;29;20463;-91
2022/12/31 08:59:44;;;;;;;4.93;1.17;;;18.30;1.00;;;;;;4855732;29;20470;-91
2022/12/31 09:03:04;;;;;;;3.23;1.10;;;18.40;1.00;;;;;;4852423;29;20476;-90
2022/12/31 09:06:36;;;;;;;2.40;0.80;;;18.40;99.90;;;;;;4844672;29;20451;-90
2022/12/31 09:09:05;;;;;;;3.17;1.10;;;18.50;99.90;;;;;;4802221;29;20522;-90
2022/12/31 09:12:14;;;;;;;2.80;1.10;;;18.70;99.90;;;;;;4797011;29;20520;-90
2022/12/31 09:15:37;;;;;;;;;;;;;;;;;;;;;
2022/12/31 09:18:50;;;;;;;3.93;1.07;;;19.00;99.90;;;;;;4781277;29;20478;-90
2022/12/31 09:21:19;;;;;;;3.50;1.20;;;19.00;99.90;;;;;;4846943;29;20922;-90
2022/12/31 09:23:50;;;;;;;3.20;1.53;;;19.00;99.90;;;;;;4840573;29;20445;-90
2022/12/31 09:26:42;;;;;;;1.90;1.00;;;18.90;99.90;;;;;;4854972;29;20468;-90
2022/12/31 09:32:31;;;;;;;1.70;0.90;;;18.80;99.90;;;;;;3146202;27;21189;-90
2022/12/31 09:35:18;;;;;;;3.03;1.53;;;18.70;99.90;;;;;;4828871;29;20967;-90
2022/12/31 09:38:20;;;;;;;4.30;1.37;;;18.70;99.90;;;;;;4836798;29;20446;-90
2022/12/31 09:41:18;;;;;;;5.13;1.30;;;18.70;99.90;;;;;;4844488;29;20469;-90
2022/12/31 09:44:30;;;;;;;4.90;1.33;;;18.70;99.90;;;;;;4830929;29;20441;-90
2022/12/31 09:47:21;;;;;;;3.37;1.20;;;18.80;83.40;;;;;;4823875;29;20481;-90
2022/12/31 09:50:26;;;;;;;2.43;1.27;;;18.80;81.60;;;;;;4822370;29;20819;-90
2022/12/31 09:57:12;;;;;;;4.60;0.97;;;18.60;87.70;;;;;;4826453;29;20515;-90
2022/12/31 10:00:22;;;;;;;4.20;1.60;;;18.50;99.90;;;;;;4961605;23;20508;-90
2022/12/31 10:03:32;;;;;;;1.90;0.93;;;18.40;99.90;;;;;;4825608;29;20464;-90
2022/12/31 10:13:59;;;;;;;3.57;1.20;;;18.20;99.90;;;;;;4763478;30;20443;-90
2022/12/31 10:20:36;;;;;;;2.20;1.03;;;18.50;99.90;;;;;;4807873;29;20583;-91
2022/12/31 10:24:08;;;;;;;3.53;1.30;;;18.70;99.90;;;;;;4823120;29;20536;-89
2022/12/31 10:27:20;;;;;;;5.40;1.47;;;18.90;70.00;;;;;;4812533;29;20448;-90
2022/12/31 10:30:25;;;;;;;;;;;;;;;;;;;;;
2022/12/31 10:33:36;;;;;;;4.30;1.30;;;19.30;1.00;;;;;;4814691;29;20438;-89
2022/12/31 10:36:47;;;;;;;2.70;1.43;;;19.50;1.00;;;;;;4813785;29;20486;-89
2022/12/31 10:39:49;;;;;;;5.10;1.73;;;19.60;1.00;;;;;;4823258;29;20489;-90
2022/12/31 10:42:52;;;;;;;3.53;1.20;;;19.80;1.00;;;;;;4825847;29;20449;-91
2022/12/31 10:45:49;;;;;;;2.43;1.20;;;19.80;1.00;;;;;;4817690;29;20491;-91
2022/12/31 10:48:50;;;;;;;5.77;1.47;;;19.90;1.00;;;;;;4826617;29;20447;-91
2022/12/31 10:54:15;;;;;;;3.20;0.90;;;19.70;1.00;;;;;;4827626;29;20447;-91
2022/12/31 10:57:16;;;;;;;;;;;;;;;;;;;;;
2022/12/31 11:00:12;;;;;;;3.20;1.43;;;19.70;1.00;;;;;;4814103;29;20508;-92
2022/12/31 11:03:15;;;;;;;5.10;1.40;;;19.80;1.00;;;;;;4819292;29;20452;-92
2022/12/31 11:06:08;;;;;;;4.40;1.30;;;20.00;1.00;;;;;;4819387;29;20453;-92
2022/12/31 11:08:54;;;;;;;3.67;0.97;;;20.20;1.00;;;;;;4818916;29;20976;-92
2022/12/31 11:11:23;;;;;;;3.70;1.03;;;20.40;1.00;;;;;;4820408;29;20439;-93
2022/12/31 11:14:08;;;;;;;3.17;1.30;;;20.60;1.00;;;;;;4818422;29;20481;-93
2022/12/31 11:16:55;;;;;;;4.43;1.47;;;20.90;1.00;;;;;;4828593;29;20445;-91
2022/12/31 11:27:47;;;;;;;3.90;1.33;;;20.90;99.90;;;;;;4560254;23;20533;-89
2022/12/31 11:30:22;;;;;;;3.77;1.23;;;20.60;99.90;;;;;;4825232;29;20473;-93
2022/12/31 11:33:29;;;;;;;3.07;1.23;;;20.40;99.90;;;;;;4842569;29;20513;-93
2022/12/31 11:36:30;;;;;;;2.53;1.17;;;20.20;99.90;;;;;;4841825;29;20529;-92
2022/12/31 11:39:19;;;;;;;4.13;1.37;;;20.10;1.00;;;;;;4825334;29;20566;-93
2022/12/31 11:42:25;;;;;;;3.57;1.20;;;20.10;1.00;;;;;;4818627;29;20485;-93
2022/12/31 11:44:53;;;;;;;2.63;1.00;;;20.00;1.00;;;;;;4836035;29;20592;-92
2022/12/31 11:47:41;;;;;;;5.27;1.43;;;19.90;1.00;;;;;;4839984;29;20466;-93
2022/12/31 11:50:26;;;;;;;3.43;1.60;;;19.80;1.00;;;;;;4824199;29;20467;-92
2022/12/31 11:53:27;;;;;;;5.80;1.30;;;19.60;1.00;;;;;;4824406;29;20530;-92
2022/12/31 11:56:21;;;;;;;3.57;1.57;;;19.90;1.00;;;;;;4821988;29;20438;-92
2022/12/31 11:58:52;;;;;;;3.60;1.30;;;20.10;1.00;;;;;;4839515;29;20682;-92
2022/12/31 12:01:54;;;;;;;4.60;1.57;;;20.20;1.00;;;;;;4831426;29;20975;-92
2022/12/31 12:04:38;;;;;;;2.63;1.00;;;20.20;99.90;;;;;;4849038;29;20440;-92
2022/12/31 12:07:15;;;;;;;5.37;1.20;;;20.20;99.90;;;;;;4820390;29;20447;-92
2022/12/31 12:09:53;;;;;;;4.07;1.33;;;20.20;99.90;;;;;;4839507;29;20472;-93
2022/12/31 12:12:24;;;;;;;3.13;1.10;;;20.20;99.90;;;;;;4822297;29;20461;-93
2022/12/31 12:15:16;;;;;;;5.73;1.17;;;20.10;99.90;;;;;;4827776;29;20533;-92
2022/12/31 12:17:51;;;;;;;6.63;1.50;;;19.90;99.90;;;;;;4829759;29;20449;-91
2022/12/31 12:20:48;;;;;;;4.40;1.70;;;19.70;99.90;;;;;;4844984;29;20953;-94
2022/12/31 12:23:23;;;;;;;5.67;1.50;;;19.50;99.90;;;;;;4834922;29;20464;-90
2022/12/31 12:25:49;;;;;;;4.33;1.40;;;19.40;1.00;;;;;;4832057;29;20473;-92
2022/12/31 12:28:53;;;;;;;1.97;1.27;;;19.30;1.00;;;;;;4825928;29;20881;-90
2022/12/31 12:31:22;;;;;;;2.10;1.00;;;19.30;1.00;;;;;;4828586;29;20523;-91
2022/12/31 12:33:51;;;;;;;5.13;1.13;;;19.30;1.00;;;;;;4818373;29;20547;-92
2022/12/31 12:36:18;;;;;;;7.30;1.67;;;19.30;1.00;;;;;;4833953;29;20519;-92
2022/12/31 12:38:44;;;;;;;4.57;1.47;;;19.30;1.00;;;;;;4824309;29;20482;-92
2022/12/31 12:41:48;;;;;;;2.90;1.07;;;19.30;1.00;;;;;;4821586;29;20464;-91
2022/12/31 12:44:15;;;;;;;3.27;1.40;;;19.30;1.00;;;;;;4839252;29;20184;-91
2022/12/31 12:46:51;;;;;;;5.03;1.37;;;19.30;1.00;;;;;;4830832;29;20449;-92
2022/12/31 12:50:00;;;;;;;4.87;2.00;;;19.10;1.00;;;;;;4829712;29;20467;-91
2022/12/31 12:52:49;;;;;;;4.80;1.30;;;19.10;1.00;;;;;;4814109;29;20463;-91
2022/12/31 12:56:14;;;;;;;;;;;;;;;;;;;;;
2022/12/31 12:59:07;;;;;;;3.80;1.30;;;18.90;1.00;;;;;;4834842;29;20491;-91
2022/12/31 13:02:22;;;;;;;5.03;1.67;;;18.80;1.00;;;;;;4825253;29;20452;-91
2022/12/31 13:05:20;;;;;;;8.13;3.80;;;18.80;1.00;;;;;;4835078;29;20477;-91
2022/12/31 13:08:22;;;;;;;9.83;3.27;;;18.90;1.00;;;;;;4817768;29;20458;-91
2022/12/31 13:18:09;;;;;;;7.07;1.67;;;19.00;1.00;;;;;;4821201;29;20452;-91
2022/12/31 13:21:25;;;;;;;3.47;1.40;;;18.80;1.00;;;;;;4824882;29;20447;-92
2022/12/31 13:24:09;;;;;;;3.50;1.23;;;18.70;1.00;;;;;;4831700;29;20442;-91
2022/12/31 13:26:43;;;;;;;4.50;1.60;;;18.60;1.00;;;;;;4833026;29;20447;-91
2022/12/31 13:29:30;;;;;;;9.73;1.80;;;18.50;1.00;;;;;;4828264;29;20468;-93
2022/12/31 13:32:00;;;;;;;3.00;1.80;;;18.50;1.00;;;;;;4821447;29;20455;-92
2022/12/31 13:34:52;;;;;;;4.50;1.73;;;18.60;1.00;;;;;;4832644;29;20853;-92
2022/12/31 13:37:27;;;;;;;4.23;1.33;;;18.80;1.00;;;;;;4824654;29;21100;-92
2022/12/31 13:40:01;;;;;;;1.90;1.00;;;18.80;1.00;;;;;;4821280;29;21039;-91
2022/12/31 13:43:02;;;;;;;4.80;1.73;;;18.80;1.00;;;;;;4830339;29;21018;-91
2022/12/31 13:45:36;;;;;;;4.33;1.73;;;18.90;1.00;;;;;;4823668;29;20484;-91
2022/12/31 13:48:18;;;;;;;3.00;1.83;;;18.90;1.00;;;;;;4837820;29;20441;-91
2022/12/31 13:50:56;;;;;;;4.87;1.63;;;18.90;1.00;;;;;;4823948;29;20439;-92
2022/12/31 13:53:45;;;;;;;8.17;1.77;;;18.80;1.00;;;;;;4824629;29;20437;-91
2022/12/31 13:56:20;;;;;;;5.87;1.87;;;18.80;1.00;;;;;;4823722;29;20453;-91
2022/12/31 13:59:06;;;;;;;4.77;2.07;;;18.80;1.00;;;;;;4831860;29;20497;-92
2022/12/31 14:02:03;;;;;;;8.57;2.50;;;18.70;1.00;;;;;;4827581;29;20944;-91
2022/12/31 14:05:17;;;;;;;3.10;1.80;;;18.60;1.00;;;;;;4821981;29;20577;-91
2022/12/31 14:08:00;;;;;;;;;;;;;;;;;;;;;
2022/12/31 14:11:00;;;;;;;4.73;1.90;;;18.30;1.00;;;;;;4825959;29;20466;-92
2022/12/31 14:13:45;;;;;;;6.27;2.20;;;18.20;1.00;;;;;;4836695;29;20991;-92
2022/12/31 14:16:29;;;;;;;6.50;2.10;;;18.00;1.00;;;;;;4820740;29;20453;-91
2022/12/31 14:19:21;;;;;;;;;;;;;;;;;;;;;
2022/12/31 14:22:27;;;;;;;5.17;1.70;;;17.90;1.00;;;;;;4829217;29;20784;-91
2022/12/31 14:25:01;;;;;;;4.80;1.37;;;17.80;1.00;;;;;;4834715;29;20536;-92
2022/12/31 14:27:35;;;;;;;3.00;1.60;;;17.70;1.00;;;;;;4820109;29;20510;-91
2022/12/31 14:30:33;;;;;;;3.07;1.70;;;17.70;1.00;;;;;;4817422;29;20466;-92
2022/12/31 14:33:42;;;;;;;5.43;1.70;;;17.60;12.40;;;;;;4820796;29;20562;-89
2022/12/31 14:36:36;;;;;;;4.17;1.63;;;17.50;40.40;;;;;;4830032;29;20449;-89
2022/12/31 14:39:29;;;;;;;6.00;1.90;;;17.40;87.70;;;;;;4837976;29;20526;-92
2022/12/31 14:42:32;;;;;;;8.43;2.70;;;17.40;99.90;;;;;;4839944;29;20832;-92
2022/12/31 14:45:30;;;;;;;4.13;2.27;;;17.30;99.90;;;;;;4835717;29;20436;-90
2022/12/31 14:48:20;;;;;;;3.50;2.13;;;17.30;99.90;;;;;;4822863;29;20530;-90
2022/12/31 15:02:07;;;;;;;6.63;1.70;;;17.20;99.90;;;;;;4791350;29;20442;-91
2022/12/31 15:05:58;;;;;;;;;;;;;;;;;;;;;
2022/12/31 15:21:26;;;;;;;3.97;1.60;;;16.70;99.90;;;;;;4588005;27;20486;-89
2022/12/31 15:23:52;;;;;;;5.27;1.80;;;16.70;99.90;;;;;;4843161;29;20447;-89
2022/12/31 15:26:30;;;;;;;3.23;1.67;;;16.70;99.90;;;;;;4847560;29;20431;-89
2022/12/31 15:29:10;;;;;;;3.70;1.80;;;16.80;99.90;;;;;;4857090;29;20746;-90